Webcams

Webcam1&2        Webcam1 (Zeitraffer 2 Std.)        Webcam2 (Zeitraffer 2 Std.)

Webcam1 - Zeitraffer (die letzten zwei Stunden, Intervall: 10min)
cam1--20190619_164959M
cam1--20190619_165959M
cam1--20190619_171000M
cam1--20190619_171959M
cam1--20190619_173000M
cam1--20190619_173958M
cam1--20190619_174959M
cam1--20190619_175959M
cam1--20190619_181000M
cam1--20190619_182000M
cam1--20190619_182959M
cam1--20190619_183959M
cam1--20190619_184959M
01/13 
start stop bwd fwd

Webcam1 - Aktuell

Lokale Serverzeit 18:50 | 19.06.2019
Webcam-Lageplan

Flugwetter

[source: ADDS]
METAR
LOWL 191620Z AUTO 27005KT 240V310 9999 FEW230 29/13 Q1010 NOSIG =
TAF LOWL 191115Z 1912/2012 28004KT 9999 FEW050 TX30/1914Z TN16/2003Z TEMPO 1912/1917 VRB08KT FEW060CB BKN150 BECMG 2010/2012 FEW050CB
TAF
TAF LOWL 191115Z 1912/2012 28004KT 9999 FEW050 TX30/1914Z TN16/2003Z TEMPO 1912/1917 VRB08KT FEW060CB BKN150 BECMG 2010/2012 FEW050CB =